Terminal Aerodrome Forecast
Issued by NWS

Home | Current Version | Previous Version | Text Only | Print | Product List | Glossary On
Versions: 1 2 3 4 5 6 7 8 9 10 11 12 13 14 15 16 17 18 19 20 21
680
FTUS42 KGSP 172335
TAFGMU
TAF
KGMU 172335Z 1800/1824 23007KT P6SM BKN045
     FM180800 24010KT 5SM BR OVC015
     FM181000 24010KT 5SM BR OVC008
     FM181200 25008KT 4SM BR BKN020
     FM181400 26009KT P6SM SCT100 BKN250
     FM182000 29005KT P6SM FEW250=

USA.gov is the U.S. government's official web portal to all federal, state and local government web resources and services.